NORTHEAST SUFFOLK  -  Winter Weather Advisory Winter Weather Advisory     Winter Weather Advisory Winter Weather Advisory        NORTHERN NASSAU  -  Winter Weather Advisory Winter Weather Advisory        NORTHERN QUEENS  -  Winter Weather Advisory Winter Weather Advisory        NORTHWEST SUFFOLK  -  Winter Weather Advisory Winter Weather Advisory     Winter Weather Advisory Winter Weather Advisory        SOUTHEAST SUFFOLK  -  Winter Weather Advisory Winter Weather Advisory     Winter Weather Advisory Winter Weather Advisory        SOUTHERN NASSAU  -  Winter Weather Advisory Winter Weather Advisory        SOUTHERN QUEENS  -  Winter Weather Advisory Winter Weather Advisory        SOUTHWEST SUFFOLK  -  Winter Weather Advisory Winter Weather Advisory     Winter Weather Advisory Winter Weather Advisory      

Active alerts

Northern Queens
  Details for Northern Queens Winter Weather Advisory
Southern Queens
  Details for Southern Queens Winter Weather Advisory
Northern Nassau
  Details for Northern Nassau Winter Weather Advisory
Southern Nassau
  Details for Southern Nassau Winter Weather Advisory
Northwest Suffolk
  Details for Northwest Suffolk Winter Weather Advisory  +1 additional alert
Southwest Suffolk
  Details for Southwest Suffolk Winter Weather Advisory  +1 additional alert
Northeast Suffolk
  Details for Northeast Suffolk Winter Weather Advisory  +1 additional alert
Southeast Suffolk
  Details for Southeast Suffolk Winter Weather Advisory  +1 additional alert


WXM80 ListenWXM80 Stop

You find our weather info also at:

UK Metoffice

WeatherCloud

Weather Underground

Northeastern Weather Network

AWEKAS

Citizen Weather Observer Program (CWOP)

HAMweather, WeatherForYou, PWS Weather


Weather Underground History page Text

Daily Summary for June 16, 2017 Units:  English    Metric   Both
« Previous Day
Next Day »
Daily Weekly Monthly Yearly Custom
  High: Low: Average:
Temperature: 66.9 °F 59.1 °F 63.6 °F
Dew Point: 63.9 °F 56.8 °F 61.3 °F
Humidity: 97 % 83 % 93 %
Wind Speed: 5.2 mph 0.0 mph 0.5 mph
Wind Gust: 11.5 mph - -
Wind:- - ESE
Pressure: 30.01 in 29.89 in -
Precipitation: 0.03 in    
Historical Graphs
 
 
Tabular Data for June 16, 2017
Time Temperature Dew Point Pressure Wind Wind Speed Wind Gust Humidity Rainfall Rate (Hourly)
00:03 62.1 °F 57.2 °F 30.01 in Calm     84 % 0.00 in
00:08 62.0 °F 57.1 °F 30.01 in Calm     84 % 0.00 in
00:13 62.0 °F 57.4 °F 30.01 in SSE 1.2 mph 3.5 mph 85 % 0.00 in
00:18 61.9 °F 57.3 °F 30.01 in SE 3.1 mph 8.1 mph 85 % 0.00 in
00:23 61.9 °F 57.7 °F 30.00 in SSE 2.8 mph 5.8 mph 86 % 0.00 in
00:28 61.8 °F 57.6 °F 30.00 in SSE 0.4 mph 2.3 mph 86 % 0.00 in
00:33 61.8 °F 57.9 °F 30.00 in SSE 0.2 mph 1.2 mph 87 % 0.00 in
00:38 61.8 °F 57.9 °F 30.01 in SSE 0.3 mph 2.0 mph 87 % 0.00 in
00:43 61.7 °F 57.8 °F 30.01 in Calm     87 % 0.00 in
00:48 61.7 °F 57.8 °F 30.01 in Calm     87 % 0.00 in
00:53 61.6 °F 57.7 °F 30.01 in Calm     87 % 0.00 in
00:58 61.6 °F 57.7 °F 30.01 in SSE 0.3 mph 1.2 mph 87 % 0.00 in
01:03 61.6 °F 58.0 °F 30.01 in Calm     88 % 0.00 in
01:08 61.6 °F 58.0 °F 30.01 in Calm     88 % 0.00 in
01:14 61.6 °F 58.0 °F 30.01 in Calm   1.2 mph 88 % 0.00 in
01:19 61.5 °F 57.9 °F 30.01 in Calm   1.2 mph 88 % 0.00 in
01:24 61.4 °F 57.8 °F 30.00 in Calm     88 % 0.00 in
01:29 61.4 °F 58.1 °F 30.00 in SSE 0.2 mph 1.2 mph 89 % 0.00 in
01:34 61.4 °F 58.1 °F 30.01 in Calm     89 % 0.00 in
01:39 61.4 °F 58.1 °F 30.00 in SSE 0.1 mph 2.3 mph 89 % 0.00 in
01:44 61.4 °F 58.1 °F 30.00 in SSE 0.1 mph 3.5 mph 89 % 0.00 in
01:49 61.3 °F 58.0 °F 30.00 in SSE 0.3 mph 1.2 mph 89 % 0.00 in
01:54 61.3 °F 58.0 °F 30.00 in Calm   1.2 mph 89 % 0.00 in
01:59 61.3 °F 58.0 °F 30.00 in SSE 0.1 mph 1.2 mph 89 % 0.00 in
02:04 61.3 °F 58.3 °F 29.99 in Calm     90 % 0.00 in
02:09 61.2 °F 58.2 °F 29.99 in Calm     90 % 0.00 in
02:14 61.1 °F 58.1 °F 29.99 in SSE 0.1 mph 1.2 mph 90 % 0.00 in
02:19 60.9 °F 57.9 °F 29.99 in Calm   1.2 mph 90 % 0.00 in
02:24 60.9 °F 57.9 °F 29.99 in Calm     90 % 0.00 in
02:29 60.8 °F 57.8 °F 29.98 in SSE 0.1 mph 1.2 mph 90 % 0.00 in
02:35 60.7 °F 57.7 °F 29.98 in SSE 0.9 mph 3.5 mph 90 % 0.00 in
02:40 60.7 °F 58.1 °F 29.98 in SSE 0.2 mph 2.3 mph 91 % 0.00 in
02:45 60.7 °F 58.1 °F 29.98 in SSE 0.1 mph 1.2 mph 91 % 0.00 in
02:50 60.7 °F 58.1 °F 29.98 in Calm     91 % 0.00 in
02:55 60.7 °F 58.1 °F 29.98 in SSE 0.7 mph 3.5 mph 91 % 0.00 in
03:00 60.6 °F 58.0 °F 29.99 in Calm   1.2 mph 91 % 0.00 in
03:05 60.6 °F 58.0 °F 29.98 in SSE 0.1 mph 1.2 mph 91 % 0.00 in
03:10 60.6 °F 58.0 °F 29.98 in SSE 0.1 mph 1.2 mph 91 % 0.00 in
03:11 60.6 °F 58.3 °F 29.98 in Calm   1.2 mph 92 % 0.00 in
03:16 60.6 °F 58.3 °F 29.98 in Calm   1.0 mph 92 % 0.00 in
03:21 60.6 °F 58.3 °F 29.98 in SSE 0.3 mph 2.3 mph 92 % 0.00 in
03:22 60.6 °F 58.3 °F 29.98 in Calm     92 % 0.00 in
03:27 60.5 °F 58.2 °F 29.98 in Calm     92 % 0.00 in
03:32 60.5 °F 58.2 °F 29.98 in Calm     92 % 0.00 in
03:37 60.4 °F 58.1 °F 29.98 in Calm     92 % 0.00 in
03:42 60.4 °F 58.1 °F 29.98 in Calm     92 % 0.00 in
03:47 60.3 °F 58.0 °F 29.98 in Calm   1.2 mph 92 % 0.00 in
03:52 60.2 °F 57.9 °F 29.98 in Calm     92 % 0.00 in
03:57 60.2 °F 57.9 °F 29.98 in Calm     92 % 0.00 in
04:02 60.1 °F 57.8 °F 29.98 in Calm     92 % 0.00 in
04:03 60.1 °F 57.8 °F 29.98 in Calm     92 % 0.00 in
04:08 60.0 °F 57.7 °F 29.98 in Calm     92 % 0.00 in
04:14 60.0 °F 57.7 °F 29.98 in Calm     92 % 0.00 in
04:19 59.9 °F 57.6 °F 29.98 in Calm     92 % 0.00 in
04:24 59.8 °F 57.5 °F 29.98 in Calm   1.2 mph 92 % 0.00 in
04:29 59.7 °F 57.4 °F 29.98 in Calm   1.2 mph 92 % 0.00 in
04:34 59.6 °F 57.3 °F 29.98 in Calm     92 % 0.00 in
04:39 59.6 °F 57.3 °F 29.97 in Calm     92 % 0.00 in
04:44 59.5 °F 57.2 °F 29.98 in Calm     92 % 0.00 in
04:49 59.4 °F 56.8 °F 29.98 in Calm     91 % 0.00 in
04:54 59.4 °F 57.1 °F 29.97 in Calm     92 % 0.00 in
04:59 59.3 °F 57.0 °F 29.97 in Calm     92 % 0.00 in
05:04 59.3 °F 57.0 °F 29.97 in Calm     92 % 0.00 in
05:09 59.2 °F 57.2 °F 29.96 in Calm     93 % 0.00 in
05:14 59.2 °F 57.2 °F 29.96 in Calm     93 % 0.00 in
05:19 59.2 °F 57.2 °F 29.96 in Calm     93 % 0.00 in
05:24 59.2 °F 57.2 °F 29.97 in Calm     93 % 0.00 in
05:29 59.2 °F 57.5 °F 29.97 in Calm     94 % 0.00 in
05:34 59.2 °F 57.5 °F 29.97 in SSE 0.1 mph 1.2 mph 94 % 0.00 in
05:39 59.2 °F 57.5 °F 29.97 in Calm   1.2 mph 94 % 0.00 in
05:44 59.1 °F 57.4 °F 29.97 in Calm   1.0 mph 94 % 0.00 in
05:49 59.2 °F 57.5 °F 29.98 in Calm     94 % 0.00 in
05:54 59.3 °F 57.6 °F 29.98 in Calm     94 % 0.00 in
05:59 59.3 °F 57.6 °F 29.98 in Calm     94 % 0.00 in
06:04 59.3 °F 57.6 °F 29.98 in Calm     94 % 0.00 in
06:09 59.4 °F 58.0 °F 29.98 in Calm     95 % 0.00 in
06:14 59.7 °F 58.3 °F 29.98 in Calm     95 % 0.00 in
06:20 60.0 °F 58.6 °F 29.98 in SSE 0.3 mph 1.2 mph 95 % 0.00 in
06:25 60.5 °F 59.4 °F 29.97 in East 0.1 mph 1.2 mph 96 % 0.00 in
06:30 60.7 °F 59.6 °F 29.97 in Calm     96 % 0.00 in
06:35 61.0 °F 59.9 °F 29.97 in East 0.3 mph 1.2 mph 96 % 0.00 in
06:40 61.1 °F 59.7 °F 29.97 in Calm   3.5 mph 95 % 0.00 in
06:45 61.5 °F 60.1 °F 29.97 in SE 0.6 mph 2.3 mph 95 % 0.00 in
06:50 61.8 °F 60.4 °F 29.97 in NNE 0.3 mph 3.5 mph 95 % 0.00 in
06:55 61.9 °F 60.2 °F 29.98 in Calm   1.2 mph 94 % 0.00 in
07:00 62.0 °F 60.3 °F 29.98 in East 1.1 mph 3.0 mph 94 % 0.00 in
07:05 62.2 °F 60.2 °F 29.98 in Calm     93 % 0.00 in
07:10 62.2 °F 60.2 °F 29.98 in ESE 0.5 mph 2.3 mph 93 % 0.00 in
07:15 62.3 °F 59.9 °F 29.98 in ESE 1.1 mph 2.3 mph 92 % 0.00 in
07:20 62.4 °F 60.0 °F 29.98 in ESE 0.4 mph 1.2 mph 92 % 0.00 in
07:25 62.6 °F 60.2 °F 29.97 in SE 0.1 mph 3.5 mph 92 % 0.00 in
07:30 62.8 °F 60.4 °F 29.98 in SE 0.1 mph 1.2 mph 92 % 0.00 in
07:35 62.9 °F 60.5 °F 29.98 in SE 0.8 mph 3.5 mph 92 % 0.00 in
07:40 63.1 °F 60.4 °F 29.98 in SE 2.5 mph 6.9 mph 91 % 0.00 in
07:45 63.4 °F 60.7 °F 29.98 in ESE 1.0 mph 2.3 mph 91 % 0.00 in
07:50 63.7 °F 60.7 °F 29.98 in SSW 1.1 mph 2.3 mph 90 % 0.00 in
07:55 64.1 °F 60.8 °F 29.98 in SSE 5.2 mph 11.5 mph 89 % 0.00 in
08:00 64.4 °F 61.1 °F 29.98 in SE 0.5 mph 1.2 mph 89 % 0.00 in
08:05 64.6 °F 61.0 °F 29.97 in SE 3.1 mph 6.9 mph 88 % 0.00 in
08:10 64.8 °F 60.8 °F 29.97 in SE 1.2 mph 8.1 mph 87 % 0.00 in
08:15 65.0 °F 60.7 °F 29.97 in SE 4.4 mph 5.8 mph 86 % 0.00 in
08:20 65.2 °F 61.2 °F 29.97 in ESE 1.7 mph 5.8 mph 87 % 0.00 in
08:25 65.6 °F 61.3 °F 29.97 in South 2.0 mph 8.1 mph 86 % 0.00 in
08:30 66.0 °F 61.7 °F 29.97 in East 1.0 mph 4.6 mph 86 % 0.00 in
08:36 66.5 °F 61.8 °F 29.98 in ESE 3.0 mph 8.0 mph 85 % 0.00 in
08:41 66.6 °F 61.6 °F 29.98 in SSE 1.9 mph 4.0 mph 84 % 0.00 in
08:46 66.6 °F 61.6 °F 29.98 in Calm   10.0 mph 84 % 0.00 in
08:51 66.6 °F 61.6 °F 29.98 in East 1.0 mph 3.0 mph 84 % 0.00 in
08:56 66.4 °F 61.4 °F 29.98 in East 1.0 mph 5.0 mph 84 % 0.00 in
09:01 66.3 °F 61.0 °F 29.98 in ESE 3.8 mph 9.2 mph 83 % 0.00 in
09:06 66.2 °F 61.2 °F 29.98 in ESE 2.1 mph 4.6 mph 84 % 0.00 in
09:11 66.2 °F 61.6 °F 29.97 in ESE 0.1 mph 3.5 mph 85 % 0.00 in
09:16 66.2 °F 61.6 °F 29.97 in ESE 1.1 mph 2.3 mph 85 % 0.00 in
09:21 66.2 °F 61.6 °F 29.97 in ESE 2.3 mph 4.6 mph 85 % 0.00 in
09:31 66.3 °F 61.7 °F 29.97 in ESE 2.4 mph 3.5 mph 85 % 0.00 in
09:36 66.4 °F 61.8 °F 29.97 in SE 1.2 mph 5.0 mph 85 % 0.00 in
09:41 66.6 °F 61.9 °F 29.96 in SE 0.4 mph 3.5 mph 85 % 0.00 in
09:46 66.7 °F 61.7 °F 29.96 in East 1.1 mph 3.5 mph 84 % 0.00 in
09:51 66.8 °F 62.1 °F 29.96 in Calm   6.9 mph 85 % 0.00 in
09:56 66.9 °F 62.2 °F 29.96 in SE 1.0 mph 4.0 mph 85 % 0.00 in
10:01 66.8 °F 62.1 °F 29.96 in SE 1.4 mph 2.3 mph 85 % 0.00 in
10:06 66.7 °F 62.0 °F 29.95 in East 1.2 mph 2.3 mph 85 % 0.00 in
10:11 66.6 °F 61.9 °F 29.96 in ENE 1.0 mph 2.3 mph 85 % 0.00 in
10:16 66.4 °F 62.1 °F 29.95 in ENE 0.8 mph 2.3 mph 86 % 0.00 in
10:21 66.3 °F 62.0 °F 29.96 in ENE 0.6 mph 2.3 mph 86 % 0.00 in
10:26 66.2 °F 61.9 °F 29.95 in ENE 0.8 mph 2.3 mph 86 % 0.00 in
10:31 66.1 °F 62.1 °F 29.96 in ENE 1.0 mph 1.2 mph 87 % 0.00 in
10:36 65.9 °F 61.9 °F 29.96 in ENE 0.6 mph 2.3 mph 87 % 0.00 in
10:41 65.8 °F 62.1 °F 29.96 in ENE 0.7 mph 2.3 mph 88 % 0.00 in
10:46 65.7 °F 62.4 °F 29.96 in NW 0.5 mph 1.2 mph 89 % 0.00 in
10:52 65.6 °F 62.3 °F 29.96 in Calm   1.2 mph 89 % 0.00 in
10:57 65.6 °F 62.6 °F 29.96 in Calm     90 % 0.00 in
11:02 65.6 °F 62.6 °F 29.97 in Calm   2.3 mph 90 % 0.01 in
11:07 65.6 °F 62.9 °F 29.96 in NW 0.1 mph 1.2 mph 91 % 0.02 in
11:12 65.7 °F 63.3 °F 29.96 in Calm     92 % 0.02 in
11:17 65.8 °F 63.7 °F 29.96 in Calm   1.2 mph 93 % 0.02 in
11:22 66.0 °F 63.9 °F 29.95 in NW 0.4 mph 1.2 mph 93 % 0.02 in
11:27 66.0 °F 63.9 °F 29.95 in NW 0.1 mph 1.2 mph 93 % 0.02 in
11:32 65.9 °F 63.5 °F 29.95 in West 0.3 mph 1.2 mph 92 % 0.02 in
11:37 65.9 °F 63.8 °F 29.95 in Calm   1.2 mph 93 % 0.02 in
11:42 65.8 °F 63.4 °F 29.95 in West 0.4 mph 1.2 mph 92 % 0.02 in
11:47 65.8 °F 63.4 °F 29.95 in West 0.3 mph 2.3 mph 92 % 0.02 in
11:48 65.8 °F 63.4 °F 29.95 in West 0.4 mph 1.2 mph 92 % 0.02 in
11:53 65.8 °F 63.4 °F 29.95 in West 0.6 mph 2.3 mph 92 % 0.02 in
11:58 65.9 °F 63.8 °F 29.95 in West 0.3 mph 1.2 mph 93 % 0.01 in
12:03 65.9 °F 63.8 °F 29.95 in ESE 1.0 mph 2.3 mph 93 % 0.01 in
12:08 65.8 °F 63.4 °F 29.95 in NE 0.8 mph 2.3 mph 92 % 0.00 in
12:13 65.8 °F 63.4 °F 29.95 in NE 0.7 mph 2.3 mph 92 % 0.00 in
12:18 65.8 °F 63.4 °F 29.94 in ENE 1.0 mph 2.3 mph 92 % 0.00 in
12:23 65.9 °F 63.5 °F 29.95 in East 0.5 mph 2.3 mph 92 % 0.00 in
12:28 65.7 °F 63.0 °F 29.95 in NE 2.1 mph 4.6 mph 91 % 0.00 in
12:33 65.5 °F 62.8 °F 29.94 in East 0.4 mph 1.2 mph 91 % 0.00 in
12:39 65.5 °F 62.8 °F 29.94 in Calm   1.2 mph 91 % 0.00 in
12:44 65.4 °F 62.7 °F 29.94 in NE 0.1 mph 3.5 mph 91 % 0.00 in
12:49 65.4 °F 62.7 °F 29.94 in NE 1.8 mph 3.5 mph 91 % 0.00 in
12:54 65.3 °F 62.9 °F 29.94 in East 1.4 mph 4.6 mph 92 % 0.00 in
12:59 65.3 °F 62.9 °F 29.94 in ENE 2.1 mph 3.5 mph 92 % 0.00 in
13:04 65.3 °F 62.9 °F 29.94 in ENE 1.2 mph 2.3 mph 92 % 0.00 in
13:09 65.2 °F 62.8 °F 29.94 in NE 2.5 mph 3.5 mph 92 % 0.00 in
13:14 65.1 °F 63.0 °F 29.94 in East 1.0 mph 2.3 mph 93 % 0.00 in
13:19 65.0 °F 62.6 °F 29.94 in ENE 1.1 mph 2.3 mph 92 % 0.00 in
13:24 64.9 °F 62.5 °F 29.94 in ENE 0.2 mph 2.3 mph 92 % 0.00 in
13:29 65.0 °F 62.9 °F 29.94 in ENE 0.4 mph 2.0 mph 93 % 0.00 in
13:34 65.0 °F 62.9 °F 29.94 in ENE 0.6 mph 2.3 mph 93 % 0.00 in
13:39 65.0 °F 62.9 °F 29.94 in NE 0.6 mph 2.3 mph 93 % 0.00 in
13:44 65.0 °F 62.9 °F 29.94 in NE 0.6 mph 2.3 mph 93 % 0.00 in
13:49 64.9 °F 62.8 °F 29.94 in NE 0.4 mph 1.2 mph 93 % 0.00 in
13:55 65.0 °F 62.9 °F 29.94 in ENE 0.2 mph 2.3 mph 93 % 0.00 in
14:00 65.0 °F 62.9 °F 29.93 in ENE 0.7 mph 1.2 mph 93 % 0.00 in
14:05 64.9 °F 62.8 °F 29.93 in ENE 0.4 mph 2.3 mph 93 % 0.00 in
14:10 64.8 °F 62.7 °F 29.93 in ENE 0.5 mph 1.2 mph 93 % 0.00 in
14:15 64.7 °F 62.6 °F 29.93 in ENE 0.7 mph 2.3 mph 93 % 0.00 in
14:20 64.7 °F 62.9 °F 29.92 in ENE 1.3 mph 2.3 mph 94 % 0.00 in
14:25 64.8 °F 63.0 °F 29.92 in NE 0.8 mph 2.3 mph 94 % 0.00 in
14:30 64.8 °F 63.0 °F 29.92 in ENE 1.0 mph 2.3 mph 94 % 0.00 in
14:35 64.8 °F 63.0 °F 29.92 in ENE 0.5 mph 2.3 mph 94 % 0.00 in
14:40 64.9 °F 63.4 °F 29.92 in ENE 1.2 mph 2.3 mph 95 % 0.00 in
14:45 65.0 °F 63.5 °F 29.92 in ENE 0.9 mph 2.3 mph 95 % 0.00 in
14:50 65.1 °F 63.6 °F 29.92 in ENE 0.5 mph 1.2 mph 95 % 0.00 in
14:55 65.2 °F 63.7 °F 29.92 in East 0.4 mph 1.2 mph 95 % 0.00 in
15:00 65.3 °F 63.8 °F 29.91 in East 0.8 mph 2.3 mph 95 % 0.00 in
15:01 65.2 °F 63.7 °F 29.91 in East 0.9 mph 1.2 mph 95 % 0.00 in
15:06 65.3 °F 63.8 °F 29.91 in East 0.5 mph 2.3 mph 95 % 0.00 in
15:11 65.3 °F 63.5 °F 29.92 in ENE 0.2 mph 1.2 mph 94 % 0.00 in
15:16 65.3 °F 63.5 °F 29.91 in ENE 0.3 mph 1.2 mph 94 % 0.00 in
15:21 65.2 °F 63.4 °F 29.92 in ENE 1.3 mph 3.5 mph 94 % 0.00 in
15:26 65.0 °F 63.2 °F 29.92 in NE 0.9 mph 2.3 mph 94 % 0.00 in
15:31 64.9 °F 62.8 °F 29.92 in ENE 0.8 mph 1.2 mph 93 % 0.00 in
15:37 64.8 °F 63.0 °F 29.92 in ENE 1.3 mph 3.5 mph 94 % 0.00 in
15:42 64.7 °F 62.9 °F 29.92 in NE 0.4 mph 3.5 mph 94 % 0.00 in
15:47 64.6 °F 62.8 °F 29.91 in NE 2.9 mph 5.8 mph 94 % 0.00 in
15:52 64.6 °F 62.8 °F 29.91 in East 3.0 mph 6.9 mph 94 % 0.00 in
15:57 64.5 °F 62.7 °F 29.91 in ENE 0.9 mph 3.5 mph 94 % 0.00 in
16:02 64.6 °F 62.8 °F 29.91 in ENE 2.4 mph 4.6 mph 94 % 0.00 in
16:07 64.5 °F 62.7 °F 29.91 in ENE 1.3 mph 4.6 mph 94 % 0.00 in
16:12 64.5 °F 62.7 °F 29.91 in North 1.1 mph 3.5 mph 94 % 0.00 in
16:17 64.4 °F 62.6 °F 29.91 in ENE 2.4 mph 5.8 mph 94 % 0.00 in
16:22 64.4 °F 62.6 °F 29.91 in East 1.4 mph 5.8 mph 94 % 0.00 in
16:27 64.5 °F 62.7 °F 29.91 in ENE 0.3 mph 3.5 mph 94 % 0.00 in
16:32 64.5 °F 62.7 °F 29.91 in ENE 0.7 mph 4.0 mph 94 % 0.00 in
16:36 64.4 °F 62.7 °F 29.91 in Calm   5.0 mph 94 % 0.00 in
16:41 64.4 °F 62.6 °F 29.91 in ENE 0.5 mph 2.3 mph 94 % 0.00 in
16:46 64.5 °F 63.0 °F 29.91 in Calm   3.0 mph 95 % 0.00 in
16:51 64.5 °F 63.0 °F 29.90 in Calm   1.2 mph 95 % 0.00 in
16:56 64.5 °F 63.1 °F 29.91 in Calm   1.0 mph 95 % 0.00 in
17:01 64.6 °F 63.1 °F 29.90 in Calm   1.2 mph 95 % 0.00 in
17:06 64.7 °F 63.2 °F 29.90 in East 0.1 mph 1.2 mph 95 % 0.00 in
17:11 64.7 °F 63.2 °F 29.89 in Calm   1.0 mph 95 % 0.00 in
17:12 64.7 °F 63.2 °F 29.90 in Calm   1.2 mph 95 % 0.00 in
17:17 64.7 °F 63.2 °F 29.90 in Calm   1.2 mph 95 % 0.00 in
17:22 64.7 °F 63.2 °F 29.89 in NNW 0.1 mph 1.2 mph 95 % 0.00 in
17:27 64.8 °F 63.3 °F 29.89 in Calm   1.2 mph 95 % 0.00 in
17:32 64.8 °F 63.3 °F 29.89 in Calm     95 % 0.00 in
17:37 64.8 °F 63.3 °F 29.89 in Calm     95 % 0.00 in
17:42 64.8 °F 63.3 °F 29.90 in Calm   2.3 mph 95 % 0.00 in
17:47 64.7 °F 63.2 °F 29.89 in East 1.5 mph 3.5 mph 95 % 0.00 in
17:52 64.7 °F 63.2 °F 29.89 in ENE 0.7 mph 3.5 mph 95 % 0.00 in
17:58 64.7 °F 63.2 °F 29.89 in NE 1.0 mph 2.3 mph 95 % 0.00 in
18:03 64.6 °F 63.1 °F 29.89 in ENE 0.7 mph 2.3 mph 95 % 0.00 in
18:08 64.6 °F 63.1 °F 29.89 in ENE 0.3 mph 2.3 mph 95 % 0.00 in
18:13 64.7 °F 63.2 °F 29.90 in ENE 0.1 mph 1.2 mph 95 % 0.00 in
18:18 64.7 °F 63.5 °F 29.89 in ENE 0.4 mph 2.3 mph 96 % 0.00 in
18:23 64.7 °F 63.5 °F 29.89 in Calm     96 % 0.00 in
18:28 64.7 °F 63.5 °F 29.90 in Calm   1.2 mph 96 % 0.00 in
18:33 64.7 °F 63.5 °F 29.90 in ENE 0.1 mph 1.2 mph 96 % 0.00 in
18:38 64.7 °F 63.5 °F 29.90 in Calm   1.2 mph 96 % 0.00 in
18:43 64.7 °F 63.5 °F 29.90 in Calm     96 % 0.00 in
18:48 64.7 °F 63.5 °F 29.90 in Calm     96 % 0.00 in
18:53 64.6 °F 63.4 °F 29.90 in Calm   1.2 mph 96 % 0.00 in
18:58 64.6 °F 63.4 °F 29.90 in NE 1.0 mph 3.5 mph 96 % 0.00 in
19:03 64.5 °F 63.3 °F 29.90 in Calm     96 % 0.00 in
19:08 64.5 °F 63.3 °F 29.90 in Calm   1.2 mph 96 % 0.00 in
19:14 64.5 °F 63.3 °F 29.90 in Calm     96 % 0.00 in
19:19 64.5 °F 63.3 °F 29.91 in Calm     96 % 0.00 in
19:24 64.5 °F 63.3 °F 29.90 in Calm   1.2 mph 96 % 0.00 in
19:29 64.4 °F 63.2 °F 29.91 in Calm   1.2 mph 96 % 0.00 in
19:34 64.4 °F 63.2 °F 29.90 in Calm   1.2 mph 96 % 0.00 in
19:39 64.4 °F 63.2 °F 29.91 in Calm     96 % 0.00 in
19:44 64.3 °F 63.1 °F 29.91 in Calm   1.2 mph 96 % 0.00 in
19:49 64.3 °F 63.1 °F 29.91 in Calm     96 % 0.00 in
19:54 64.3 °F 63.1 °F 29.90 in Calm   1.2 mph 96 % 0.00 in
19:59 64.3 °F 63.1 °F 29.90 in North 0.3 mph 1.2 mph 96 % 0.00 in
20:04 64.3 °F 63.1 °F 29.90 in Calm   1.2 mph 96 % 0.00 in
20:09 64.3 °F 63.1 °F 29.90 in ENE 0.1 mph 1.2 mph 96 % 0.00 in
20:14 64.3 °F 63.1 °F 29.90 in East 0.3 mph 2.3 mph 96 % 0.00 in
20:19 64.3 °F 63.1 °F 29.90 in ENE 0.7 mph 3.5 mph 96 % 0.00 in
20:24 64.3 °F 63.1 °F 29.90 in ENE 0.3 mph 2.0 mph 96 % 0.00 in
20:29 64.3 °F 63.1 °F 29.90 in Calm     96 % 0.00 in
20:34 64.3 °F 63.1 °F 29.90 in Calm     96 % 0.00 in
20:39 64.3 °F 63.1 °F 29.90 in Calm     96 % 0.00 in
20:44 64.3 °F 63.1 °F 29.90 in Calm     96 % 0.00 in
20:49 64.3 °F 63.1 °F 29.90 in Calm     96 % 0.00 in
20:54 64.3 °F 63.4 °F 29.90 in Calm     97 % 0.00 in
20:59 64.3 °F 63.4 °F 29.90 in Calm     97 % 0.00 in
21:04 64.3 °F 63.4 °F 29.90 in Calm     97 % 0.00 in
21:09 64.2 °F 63.3 °F 29.90 in Calm     97 % 0.00 in
21:14 64.2 °F 63.3 °F 29.90 in Calm     97 % 0.00 in
21:20 64.2 °F 63.3 °F 29.90 in Calm     97 % 0.00 in
21:25 64.2 °F 63.3 °F 29.90 in Calm     97 % 0.00 in
21:30 64.2 °F 63.3 °F 29.90 in Calm     97 % 0.00 in
21:35 64.2 °F 63.3 °F 29.90 in Calm     97 % 0.00 in
21:40 64.3 °F 63.4 °F 29.90 in Calm     97 % 0.00 in
21:45 64.2 °F 63.3 °F 29.90 in Calm     97 % 0.00 in
21:50 64.2 °F 63.3 °F 29.90 in Calm     97 % 0.00 in
21:55 64.2 °F 63.3 °F 29.90 in Calm     97 % 0.00 in
22:00 64.1 °F 63.2 °F 29.89 in Calm     97 % 0.00 in
22:01 64.1 °F 63.2 °F 29.89 in ENE 0.1 mph   97 % 0.00 in
22:06 64.1 °F 63.2 °F 29.89 in Calm     97 % 0.00 in
22:11 64.1 °F 63.2 °F 29.89 in Calm   1.0 mph 97 % 0.00 in
22:16 64.1 °F 63.2 °F 29.89 in Calm     97 % 0.00 in
22:21 64.1 °F 63.2 °F 29.89 in Calm     97 % 0.00 in
22:26 64.1 °F 63.2 °F 29.89 in Calm   2.0 mph 97 % 0.00 in
22:31 64.1 °F 63.3 °F 29.89 in Calm   1.0 mph 97 % 0.00 in
22:36 64.1 °F 63.2 °F 29.89 in ENE 0.1 mph 1.2 mph 97 % 0.00 in
22:41 64.1 °F 63.2 °F 29.89 in Calm     97 % 0.00 in
22:46 64.0 °F 63.1 °F 29.89 in Calm     97 % 0.00 in
22:51 64.0 °F 63.1 °F 29.89 in Calm   2.0 mph 97 % 0.00 in
22:56 63.9 °F 63.0 °F 29.89 in Calm   4.0 mph 97 % 0.00 in
23:01 63.9 °F 63.0 °F 29.89 in Calm     97 % 0.00 in
23:06 63.9 °F 63.0 °F 29.89 in Calm     97 % 0.00 in
23:11 63.9 °F 63.0 °F 29.89 in NE 1.3 mph 3.5 mph 97 % 0.00 in
23:16 63.9 °F 63.0 °F 29.90 in NE 0.3 mph 2.0 mph 97 % 0.00 in
23:21 63.9 °F 63.0 °F 29.90 in NE 0.2 mph 1.2 mph 97 % 0.00 in
23:26 63.9 °F 63.0 °F 29.90 in NE 0.5 mph 3.5 mph 97 % 0.00 in
23:31 63.9 °F 63.0 °F 29.90 in NE 1.4 mph 4.6 mph 97 % 0.00 in
23:36 64.0 °F 63.1 °F 29.90 in NE 1.0 mph 4.6 mph 97 % 0.00 in
23:41 64.0 °F 63.1 °F 29.91 in NE 1.0 mph 2.0 mph 97 % 0.00 in
23:46 64.0 °F 63.1 °F 29.91 in NE 1.4 mph 5.8 mph 97 % 0.01 in
23:51 64.1 °F 63.2 °F 29.91 in NE 0.8 mph 3.5 mph 97 % 0.01 in
23:56 64.1 °F 63.2 °F 29.91 in ENE 1.4 mph 5.0 mph 97 % 0.01 in
Crab Meadow Weather
Compliments of Weather Underground - 3 mb

Script developed by  Jim McMurry - jmcmurry@mwt.net Adapted for the template by  Wim van der Kuil - Leuven-Template.eu

Weather Terms: Rain/Showers - Rain is a nearly steady and uniform fall of precipitation over an area. Showers are intermittent and/or scattered convective rainfall of varying intensity.